sensor_id;sensor_type;location;lat;lon;timestamp;temperature;humidity
19281;DHT22;9774;52.034;5.342;2024-03-23T00:52:14;12.40;67.60
19281;DHT22;9774;52.034;5.342;2024-03-23T00:54:40;12.40;66.90
19281;DHT22;9774;52.034;5.342;2024-03-23T00:57:07;12.40;67.00
19281;DHT22;9774;52.034;5.342;2024-03-23T00:59:33;12.40;67.00
19281;DHT22;9774;52.034;5.342;2024-03-23T01:02:00;12.40;67.00
19281;DHT22;9774;52.034;5.342;2024-03-23T01:04:26;12.40;67.00
19281;DHT22;9774;52.034;5.342;2024-03-23T01:06:53;12.40;67.00
19281;DHT22;9774;52.034;5.342;2024-03-23T01:09:20;12.40;67.10
19281;DHT22;9774;52.034;5.342;2024-03-23T01:11:48;12.40;67.10
19281;DHT22;9774;52.034;5.342;2024-03-23T01:14:14;12.40;67.10
19281;DHT22;9774;52.034;5.342;2024-03-23T01:16:41;12.40;67.10
19281;DHT22;9774;52.034;5.342;2024-03-23T01:19:07;12.40;67.10
19281;DHT22;9774;52.034;5.342;2024-03-23T01:21:34;12.40;67.10
19281;DHT22;9774;52.034;5.342;2024-03-23T01:24:00;12.40;67.10
19281;DHT22;9774;52.034;5.342;2024-03-23T01:26:29;12.40;67.10
19281;DHT22;9774;52.034;5.342;2024-03-23T01:28:55;12.40;67.10
19281;DHT22;9774;52.034;5.342;2024-03-23T01:31:22;12.50;67.20
19281;DHT22;9774;52.034;5.342;2024-03-23T01:33:48;12.40;67.10
19281;DHT22;9774;52.034;5.342;2024-03-23T01:36:15;12.40;67.00
19281;DHT22;9774;52.034;5.342;2024-03-23T01:38:41;12.50;67.10
19281;DHT22;9774;52.034;5.342;2024-03-23T01:41:08;12.40;67.00
19281;DHT22;9774;52.034;5.342;2024-03-23T01:43:36;12.40;67.00
19281;DHT22;9774;52.034;5.342;2024-03-23T01:46:03;12.40;66.90
19281;DHT22;9774;52.034;5.342;2024-03-23T01:48:29;12.40;66.80
19281;DHT22;9774;52.034;5.342;2024-03-23T01:50:56;12.40;66.70
19281;DHT22;9774;52.034;5.342;2024-03-23T01:53:22;12.30;67.30
19281;DHT22;9774;52.034;5.342;2024-03-23T01:55:50;12.30;66.60
19281;DHT22;9774;52.034;5.342;2024-03-23T01:58:17;12.30;67.20
19281;DHT22;9774;52.034;5.342;2024-03-23T02:00:45;12.30;66.40
19281;DHT22;9774;52.034;5.342;2024-03-23T02:03:24;12.20;66.30
19281;DHT22;9774;52.034;5.342;2024-03-23T02:05:53;12.10;66.30
19281;DHT22;9774;52.034;5.342;2024-03-23T02:08:21;12.10;66.10
19281;DHT22;9774;52.034;5.342;2024-03-23T02:10:49;12.00;66.10
19281;DHT22;9774;52.034;5.342;2024-03-23T02:13:17;12.00;66.00
19281;DHT22;9774;52.034;5.342;2024-03-23T02:15:46;11.90;66.00
19281;DHT22;9774;52.034;5.342;2024-03-23T02:18:12;11.90;66.00
19281;DHT22;9774;52.034;5.342;2024-03-23T02:20:39;11.80;65.90
19281;DHT22;9774;52.034;5.342;2024-03-23T02:23:13;11.80;66.00
19281;DHT22;9774;52.034;5.342;2024-03-23T02:25:40;11.70;66.00
19281;DHT22;9774;52.034;5.342;2024-03-23T02:28:06;11.70;65.90
19281;DHT22;9774;52.034;5.342;2024-03-23T02:30:34;11.60;66.00
19281;DHT22;9774;52.034;5.342;2024-03-23T02:33:01;11.60;65.90
19281;DHT22;9774;52.034;5.342;2024-03-23T02:35:27;11.50;65.90
19281;DHT22;9774;52.034;5.342;2024-03-23T02:37:54;11.40;65.90
19281;DHT22;9774;52.034;5.342;2024-03-23T02:40:23;11.40;65.90
19281;DHT22;9774;52.034;5.342;2024-03-23T02:42:51;11.30;65.90
19281;DHT22;9774;52.034;5.342;2024-03-23T02:45:17;11.30;65.90
19281;DHT22;9774;52.034;5.342;2024-03-23T02:47:44;11.20;66.00
19281;DHT22;9774;52.034;5.342;2024-03-23T02:50:10;11.20;66.10
19281;DHT22;9774;52.034;5.342;2024-03-23T02:52:38;11.10;66.00
19281;DHT22;9774;52.034;5.342;2024-03-23T02:55:04;11.10;66.10
19281;DHT22;9774;52.034;5.342;2024-03-23T02:57:32;11.10;66.20
19281;DHT22;9774;52.034;5.342;2024-03-23T02:59:59;11.10;66.30
19281;DHT22;9774;52.034;5.342;2024-03-23T03:02:26;11.00;66.30
19281;DHT22;9774;52.034;5.342;2024-03-23T03:04:52;11.00;66.30
19281;DHT22;9774;52.034;5.342;2024-03-23T03:07:19;10.90;66.30
19281;DHT22;9774;52.034;5.342;2024-03-23T03:09:45;10.90;66.30
19281;DHT22;9774;52.034;5.342;2024-03-23T03:12:12;10.90;66.30
19281;DHT22;9774;52.034;5.342;2024-03-23T03:14:39;10.80;66.20
19281;DHT22;9774;52.034;5.342;2024-03-23T03:17:06;10.80;66.20
19281;DHT22;9774;52.034;5.342;2024-03-23T03:19:32;10.80;66.20
19281;DHT22;9774;52.034;5.342;2024-03-23T03:22:00;10.70;66.20
19281;DHT22;9774;52.034;5.342;2024-03-23T03:24:26;10.70;66.30
19281;DHT22;9774;52.034;5.342;2024-03-23T03:26:53;10.60;66.20
19281;DHT22;9774;52.034;5.342;2024-03-23T03:29:19;10.60;66.20
19281;DHT22;9774;52.034;5.342;2024-03-23T03:31:47;10.60;66.10
19281;DHT22;9774;52.034;5.342;2024-03-23T03:34:15;10.60;66.20
19281;DHT22;9774;52.034;5.342;2024-03-23T03:36:42;10.50;66.00
19281;DHT22;9774;52.034;5.342;2024-03-23T03:39:08;10.50;66.00
19281;DHT22;9774;52.034;5.342;2024-03-23T03:41:35;10.40;66.00
19281;DHT22;9774;52.034;5.342;2024-03-23T03:44:02;10.40;66.10
19281;DHT22;9774;52.034;5.342;2024-03-23T03:46:29;10.40;66.40
19281;DHT22;9774;52.034;5.342;2024-03-23T03:48:57;10.30;66.10
19281;DHT22;9774;52.034;5.342;2024-03-23T03:51:23;10.30;66.00
19281;DHT22;9774;52.034;5.342;2024-03-23T03:53:50;10.20;66.00
19281;DHT22;9774;52.034;5.342;2024-03-23T03:56:16;10.20;66.00
19281;DHT22;9774;52.034;5.342;2024-03-23T03:58:43;10.10;66.00
19281;DHT22;9774;52.034;5.342;2024-03-23T04:01:10;10.10;65.90
19281;DHT22;9774;52.034;5.342;2024-03-23T04:03:37;10.00;65.90
19281;DHT22;9774;52.034;5.342;2024-03-23T04:06:06;10.00;65.90
19281;DHT22;9774;52.034;5.342;2024-03-23T04:08:33;9.90;65.90
19281;DHT22;9774;52.034;5.342;2024-03-23T04:11:00;9.90;65.90
19281;DHT22;9774;52.034;5.342;2024-03-23T04:13:26;9.90;65.90
19281;DHT22;9774;52.034;5.342;2024-03-23T04:15:54;9.90;65.90
19281;DHT22;9774;52.034;5.342;2024-03-23T04:18:20;9.80;65.90
19281;DHT22;9774;52.034;5.342;2024-03-23T04:20:48;9.80;65.90
19281;DHT22;9774;52.034;5.342;2024-03-23T04:23:16;9.70;65.90
19281;DHT22;9774;52.034;5.342;2024-03-23T04:25:43;9.70;65.90
19281;DHT22;9774;52.034;5.342;2024-03-23T04:28:09;9.60;65.80
19281;DHT22;9774;52.034;5.342;2024-03-23T04:30:36;9.60;65.90
19281;DHT22;9774;52.034;5.342;2024-03-23T04:33:03;9.60;66.00
19281;DHT22;9774;52.034;5.342;2024-03-23T04:35:31;9.50;65.90
19281;DHT22;9774;52.034;5.342;2024-03-23T04:37:57;9.50;65.90
19281;DHT22;9774;52.034;5.342;2024-03-23T04:40:26;9.50;65.90
19281;DHT22;9774;52.034;5.342;2024-03-23T04:42:53;9.50;65.90
19281;DHT22;9774;52.034;5.342;2024-03-23T04:45:20;9.40;65.90
19281;DHT22;9774;52.034;5.342;2024-03-23T04:47:48;9.40;65.90
19281;DHT22;9774;52.034;5.342;2024-03-23T04:50:16;9.40;66.20
19281;DHT22;9774;52.034;5.342;2024-03-23T04:52:44;9.30;65.80
19281;DHT22;9774;52.034;5.342;2024-03-23T04:55:10;9.30;65.80
19281;DHT22;9774;52.034;5.342;2024-03-23T04:57:39;9.20;65.80
19281;DHT22;9774;52.034;5.342;2024-03-23T05:00:07;9.20;65.80
19281;DHT22;9774;52.034;5.342;2024-03-23T05:02:44;9.20;65.80
19281;DHT22;9774;52.034;5.342;2024-03-23T05:05:12;9.20;65.90
19281;DHT22;9774;52.034;5.342;2024-03-23T05:07:38;9.10;65.90
19281;DHT22;9774;52.034;5.342;2024-03-23T05:10:06;9.10;66.00
19281;DHT22;9774;52.034;5.342;2024-03-23T05:12:35;9.10;66.00
19281;DHT22;9774;52.034;5.342;2024-03-23T05:15:05;9.00;66.00
19281;DHT22;9774;52.034;5.342;2024-03-23T05:17:32;9.00;66.00
19281;DHT22;9774;52.034;5.342;2024-03-23T05:19:59;9.00;66.10
19281;DHT22;9774;52.034;5.342;2024-03-23T05:22:25;9.00;66.10
19281;DHT22;9774;52.034;5.342;2024-03-23T05:24:52;9.00;66.20
19281;DHT22;9774;52.034;5.342;2024-03-23T05:27:19;9.00;66.20
19281;DHT22;9774;52.034;5.342;2024-03-23T05:29:46;9.00;66.20
19281;DHT22;9774;52.034;5.342;2024-03-23T05:32:14;8.90;66.20
19281;DHT22;9774;52.034;5.342;2024-03-23T05:34:41;8.90;66.30
19281;DHT22;9774;52.034;5.342;2024-03-23T05:37:07;8.90;66.30
19281;DHT22;9774;52.034;5.342;2024-03-23T05:39:34;8.90;66.40
19281;DHT22;9774;52.034;5.342;2024-03-23T05:42:00;8.90;66.50
19281;DHT22;9774;52.034;5.342;2024-03-23T05:44:27;8.90;66.60
19281;DHT22;9774;52.034;5.342;2024-03-23T05:46:54;9.00;66.70
19281;DHT22;9774;52.034;5.342;2024-03-23T05:49:22;9.00;66.80
19281;DHT22;9774;52.034;5.342;2024-03-23T05:51:50;9.00;67.00
19281;DHT22;9774;52.034;5.342;2024-03-23T05:54:17;9.00;67.10
19281;DHT22;9774;52.034;5.342;2024-03-23T05:56:44;9.10;67.30
19281;DHT22;9774;52.034;5.342;2024-03-23T05:59:10;9.10;67.30
19281;DHT22;9774;52.034;5.342;2024-03-23T06:01:37;9.10;67.20
19281;DHT22;9774;52.034;5.342;2024-03-23T06:04:04;9.20;67.20
19281;DHT22;9774;52.034;5.342;2024-03-23T06:06:33;9.20;67.10
19281;DHT22;9774;52.034;5.342;2024-03-23T06:08:59;9.20;67.70
19281;DHT22;9774;52.034;5.342;2024-03-23T06:11:26;9.20;67.00
19281;DHT22;9774;52.034;5.342;2024-03-23T06:13:52;9.30;67.00
19281;DHT22;9774;52.034;5.342;2024-03-23T06:16:19;9.30;67.00
19281;DHT22;9774;52.034;5.342;2024-03-23T06:18:49;9.30;67.00
19281;DHT22;9774;52.034;5.342;2024-03-23T06:21:16;9.40;67.10
19281;DHT22;9774;52.034;5.342;2024-03-23T06:23:46;9.40;67.70
19281;DHT22;9774;52.034;5.342;2024-03-23T06:26:18;9.40;67.00
19281;DHT22;9774;52.034;5.342;2024-03-23T06:28:45;9.40;66.90
19281;DHT22;9774;52.034;5.342;2024-03-23T06:31:14;9.50;67.00
19281;DHT22;9774;52.034;5.342;2024-03-23T06:33:42;9.50;67.60
19281;DHT22;9774;52.034;5.342;2024-03-23T06:36:11;9.50;67.00
19281;DHT22;9774;52.034;5.342;2024-03-23T06:38:38;9.50;67.00
19281;DHT22;9774;52.034;5.342;2024-03-23T06:41:08;9.60;67.10
19281;DHT22;9774;52.034;5.342;2024-03-23T06:43:34;9.70;67.20
19281;DHT22;9774;52.034;5.342;2024-03-23T06:46:03;9.70;67.20
19281;DHT22;9774;52.034;5.342;2024-03-23T06:48:29;9.70;67.20
19281;DHT22;9774;52.034;5.342;2024-03-23T06:50:57;9.80;67.30
19281;DHT22;9774;52.034;5.342;2024-03-23T06:53:24;9.80;67.30
19281;DHT22;9774;52.034;5.342;2024-03-23T06:55:51;9.90;67.30
19281;DHT22;9774;52.034;5.342;2024-03-23T06:58:20;9.90;67.20
19281;DHT22;9774;52.034;5.342;2024-03-23T07:00:48;10.00;67.30
19281;DHT22;9774;52.034;5.342;2024-03-23T07:03:15;10.00;67.30
19281;DHT22;9774;52.034;5.342;2024-03-23T07:05:43;10.10;67.30
19281;DHT22;9774;52.034;5.342;2024-03-23T07:08:09;10.20;67.40
19281;DHT22;9774;52.034;5.342;2024-03-23T07:10:39;10.20;67.40
19281;DHT22;9774;52.034;5.342;2024-03-23T07:13:05;10.30;67.40
19281;DHT22;9774;52.034;5.342;2024-03-23T07:15:34;10.30;67.30
19281;DHT22;9774;52.034;5.342;2024-03-23T07:18:00;10.40;67.20
19281;DHT22;9774;52.034;5.342;2024-03-23T07:20:27;10.40;67.30
19281;DHT22;9774;52.034;5.342;2024-03-23T07:22:55;10.50;67.20
19281;DHT22;9774;52.034;5.342;2024-03-23T07:25:22;10.60;67.20
19281;DHT22;9774;52.034;5.342;2024-03-23T07:27:49;10.60;67.00
19281;DHT22;9774;52.034;5.342;2024-03-23T07:30:16;10.70;66.80
19281;DHT22;9774;52.034;5.342;2024-03-23T07:32:45;10.70;66.70
19281;DHT22;9774;52.034;5.342;2024-03-23T07:35:13;10.80;66.80
19281;DHT22;9774;52.034;5.342;2024-03-23T07:37:39;10.80;66.70
19281;DHT22;9774;52.034;5.342;2024-03-23T07:40:07;10.90;66.60
19281;DHT22;9774;52.034;5.342;2024-03-23T07:42:33;10.90;66.70
19281;DHT22;9774;52.034;5.342;2024-03-23T07:45:00;11.00;66.70
19281;DHT22;9774;52.034;5.342;2024-03-23T07:47:26;11.10;66.70
19281;DHT22;9774;52.034;5.342;2024-03-23T07:49:55;11.10;66.60
19281;DHT22;9774;52.034;5.342;2024-03-23T07:52:21;11.20;66.50
19281;DHT22;9774;52.034;5.342;2024-03-23T07:54:48;11.20;66.40
19281;DHT22;9774;52.034;5.342;2024-03-23T07:57:14;11.30;66.20
19281;DHT22;9774;52.034;5.342;2024-03-23T07:59:41;11.40;66.30
19281;DHT22;9774;52.034;5.342;2024-03-23T08:02:07;11.50;66.00
19281;DHT22;9774;52.034;5.342;2024-03-23T08:04:34;11.60;65.70
19281;DHT22;9774;52.034;5.342;2024-03-23T08:07:02;11.60;65.40
19281;DHT22;9774;52.034;5.342;2024-03-23T08:09:29;11.70;65.10
19281;DHT22;9774;52.034;5.342;2024-03-23T08:11:55;11.80;64.90
19281;DHT22;9774;52.034;5.342;2024-03-23T08:14:22;11.80;64.60
19281;DHT22;9774;52.034;5.342;2024-03-23T08:16:48;11.90;64.50
19281;DHT22;9774;52.034;5.342;2024-03-23T08:19:16;11.90;64.00
19281;DHT22;9774;52.034;5.342;2024-03-23T08:21:42;12.00;64.40
19281;DHT22;9774;52.034;5.342;2024-03-23T08:24:11;12.00;63.90
19281;DHT22;9774;52.034;5.342;2024-03-23T08:26:37;12.00;63.80
19281;DHT22;9774;52.034;5.342;2024-03-23T08:29:05;12.00;63.60
19281;DHT22;9774;52.034;5.342;2024-03-23T08:31:31;12.00;63.20
19281;DHT22;9774;52.034;5.342;2024-03-23T08:33:58;12.00;63.10
19281;DHT22;9774;52.034;5.342;2024-03-23T08:36:24;12.00;62.80
19281;DHT22;9774;52.034;5.342;2024-03-23T08:38:51;12.00;62.70
19281;DHT22;9774;52.034;5.342;2024-03-23T08:41:20;12.00;63.40
19281;DHT22;9774;52.034;5.342;2024-03-23T08:43:47;12.10;62.70
19281;DHT22;9774;52.034;5.342;2024-03-23T08:46:15;12.10;62.20
19281;DHT22;9774;52.034;5.342;2024-03-23T08:48:43;12.10;62.50
19281;DHT22;9774;52.034;5.342;2024-03-23T08:51:12;12.10;62.70
19281;DHT22;9774;52.034;5.342;2024-03-23T08:53:39;12.20;62.70
19281;DHT22;9774;52.034;5.342;2024-03-23T08:56:07;12.20;62.60
19281;DHT22;9774;52.034;5.342;2024-03-23T08:58:37;12.30;62.40
19281;DHT22;9774;52.034;5.342;2024-03-23T09:01:06;12.30;62.70
19281;DHT22;9774;52.034;5.342;2024-03-23T09:03:34;12.40;63.00
19281;DHT22;9774;52.034;5.342;2024-03-23T09:06:01;12.50;63.00
19281;DHT22;9774;52.034;5.342;2024-03-23T09:08:28;12.60;63.10
19281;DHT22;9774;52.034;5.342;2024-03-23T09:10:54;12.70;63.30
19281;DHT22;9774;52.034;5.342;2024-03-23T09:13:21;12.80;63.20
19281;DHT22;9774;52.034;5.342;2024-03-23T09:15:50;13.00;62.20
19281;DHT22;9774;52.034;5.342;2024-03-23T09:18:22;13.10;62.00
19281;DHT22;9774;52.034;5.342;2024-03-23T09:20:48;13.20;61.50
19281;DHT22;9774;52.034;5.342;2024-03-23T09:23:15;13.30;61.40
19281;DHT22;9774;52.034;5.342;2024-03-23T09:25:41;13.30;61.30
19281;DHT22;9774;52.034;5.342;2024-03-23T09:28:08;13.40;60.60
19281;DHT22;9774;52.034;5.342;2024-03-23T09:30:35;13.40;60.00
19281;DHT22;9774;52.034;5.342;2024-03-23T09:33:09;13.40;60.00
19281;DHT22;9774;52.034;5.342;2024-03-23T09:35:37;13.30;59.80
19281;DHT22;9774;52.034;5.342;2024-03-23T09:38:04;13.30;59.60
19281;DHT22;9774;52.034;5.342;2024-03-23T09:40:31;13.30;59.80
19281;DHT22;9774;52.034;5.342;2024-03-23T09:42:58;13.30;60.30
19281;DHT22;9774;52.034;5.342;2024-03-23T09:45:27;13.30;60.60
19281;DHT22;9774;52.034;5.342;2024-03-23T09:47:55;13.30;60.60
19281;DHT22;9774;52.034;5.342;2024-03-23T09:50:23;13.40;60.80
19281;DHT22;9774;52.034;5.342;2024-03-23T09:52:50;13.50;60.50
19281;DHT22;9774;52.034;5.342;2024-03-23T09:55:17;13.50;60.50
19281;DHT22;9774;52.034;5.342;2024-03-23T09:57:44;13.60;59.60
19281;DHT22;9774;52.034;5.342;2024-03-23T10:00:12;13.60;59.70
19281;DHT22;9774;52.034;5.342;2024-03-23T10:02:40;13.60;59.40
19281;DHT22;9774;52.034;5.342;2024-03-23T10:05:20;13.60;59.20
19281;DHT22;9774;52.034;5.342;2024-03-23T10:07:49;13.70;59.00
19281;DHT22;9774;52.034;5.342;2024-03-23T10:10:16;13.60;58.90
19281;DHT22;9774;52.034;5.342;2024-03-23T10:12:45;13.70;58.70
19281;DHT22;9774;52.034;5.342;2024-03-23T10:15:18;13.70;58.60
19281;DHT22;9774;52.034;5.342;2024-03-23T10:17:46;13.70;58.40
19281;DHT22;9774;52.034;5.342;2024-03-23T10:20:13;13.60;58.00
19281;DHT22;9774;52.034;5.342;2024-03-23T10:22:45;13.60;58.20
19281;DHT22;9774;52.034;5.342;2024-03-23T10:25:13;13.60;58.10
19281;DHT22;9774;52.034;5.342;2024-03-23T10:27:41;13.50;58.00
19281;DHT22;9774;52.034;5.342;2024-03-23T10:30:09;13.50;57.00
19281;DHT22;9774;52.034;5.342;2024-03-23T10:32:38;13.50;57.40
19281;DHT22;9774;52.034;5.342;2024-03-23T10:35:14;13.40;57.50
19281;DHT22;9774;52.034;5.342;2024-03-23T10:37:42;13.40;57.20
19281;DHT22;9774;52.034;5.342;2024-03-23T10:40:12;13.50;57.40
19281;DHT22;9774;52.034;5.342;2024-03-23T10:42:39;13.50;57.80
19281;DHT22;9774;52.034;5.342;2024-03-23T10:45:07;13.50;57.50
19281;DHT22;9774;52.034;5.342;2024-03-23T10:47:36;13.60;57.90
19281;DHT22;9774;52.034;5.342;2024-03-23T10:50:04;13.60;56.90
19281;DHT22;9774;52.034;5.342;2024-03-23T10:52:32;13.60;56.60
19281;DHT22;9774;52.034;5.342;2024-03-23T10:54:59;13.50;56.90
19281;DHT22;9774;52.034;5.342;2024-03-23T10:57:34;13.40;57.10
19281;DHT22;9774;52.034;5.342;2024-03-23T11:00:07;13.40;57.70
19281;DHT22;9774;52.034;5.342;2024-03-23T11:02:36;13.40;57.70
19281;DHT22;9774;52.034;5.342;2024-03-23T11:05:02;13.30;57.70
19281;DHT22;9774;52.034;5.342;2024-03-23T11:07:55;13.30;57.90
19281;DHT22;9774;52.034;5.342;2024-03-23T11:10:25;13.30;58.20
19281;DHT22;9774;52.034;5.342;2024-03-23T11:12:56;13.30;57.50
19281;DHT22;9774;52.034;5.342;2024-03-23T11:15:23;13.20;57.20
19281;DHT22;9774;52.034;5.342;2024-03-23T11:18:03;13.10;57.30
19281;DHT22;9774;52.034;5.342;2024-03-23T11:20:35;13.00;57.60
19281;DHT22;9774;52.034;5.342;2024-03-23T11:23:03;13.00;57.80
19281;DHT22;9774;52.034;5.342;2024-03-23T11:25:30;12.90;57.90
19281;DHT22;9774;52.034;5.342;2024-03-23T11:28:11;12.80;57.90
19281;DHT22;9774;52.034;5.342;2024-03-23T11:30:37;12.60;57.90
19281;DHT22;9774;52.034;5.342;2024-03-23T11:33:05;12.60;58.20
19281;DHT22;9774;52.034;5.342;2024-03-23T11:35:32;12.50;58.10
19281;DHT22;9774;52.034;5.342;2024-03-23T11:38:07;12.50;58.30
19281;DHT22;9774;52.034;5.342;2024-03-23T11:40:35;12.40;58.40
19281;DHT22;9774;52.034;5.342;2024-03-23T11:43:05;12.40;58.90
19281;DHT22;9774;52.034;5.342;2024-03-23T11:45:36;12.50;59.50
19281;DHT22;9774;52.034;5.342;2024-03-23T11:48:06;12.50;58.90
19281;DHT22;9774;52.034;5.342;2024-03-23T11:50:36;12.60;59.30
19281;DHT22;9774;52.034;5.342;2024-03-23T11:53:12;12.70;58.90
19281;DHT22;9774;52.034;5.342;2024-03-23T11:55:43;12.80;58.50
19281;DHT22;9774;52.034;5.342;2024-03-23T11:58:14;12.90;57.40
19281;DHT22;9774;52.034;5.342;2024-03-23T12:00:42;13.00;57.80
19281;DHT22;9774;52.034;5.342;2024-03-23T12:03:14;13.10;58.00
19281;DHT22;9774;52.034;5.342;2024-03-23T12:05:48;13.20;58.00
19281;DHT22;9774;52.034;5.342;2024-03-23T12:08:16;13.30;57.20
19281;DHT22;9774;52.034;5.342;2024-03-23T12:10:46;13.40;57.10
19281;DHT22;9774;52.034;5.342;2024-03-23T12:13:17;13.50;56.90
19281;DHT22;9774;52.034;5.342;2024-03-23T12:15:46;13.50;56.60
19281;DHT22;9774;52.034;5.342;2024-03-23T12:18:13;13.50;56.40
19281;DHT22;9774;52.034;5.342;2024-03-23T12:20:41;13.50;56.50
19281;DHT22;9774;52.034;5.342;2024-03-23T12:23:08;13.50;57.10
19281;DHT22;9774;52.034;5.342;2024-03-23T12:25:38;13.60;57.00
19281;DHT22;9774;52.034;5.342;2024-03-23T12:28:05;13.70;57.20
19281;DHT22;9774;52.034;5.342;2024-03-23T12:30:35;13.80;56.10
19281;DHT22;9774;52.034;5.342;2024-03-23T12:33:04;13.90;56.60
19281;DHT22;9774;52.034;5.342;2024-03-23T12:35:32;14.00;56.40
19281;DHT22;9774;52.034;5.342;2024-03-23T12:37:58;14.10;55.60
19281;DHT22;9774;52.034;5.342;2024-03-23T12:40:25;14.10;55.80
19281;DHT22;9774;52.034;5.342;2024-03-23T12:42:52;14.10;55.60
19281;DHT22;9774;52.034;5.342;2024-03-23T12:45:19;14.20;55.00
19281;DHT22;9774;52.034;5.342;2024-03-23T12:47:46;14.20;55.30
19281;DHT22;9774;52.034;5.342;2024-03-23T12:50:14;14.30;54.20
19281;DHT22;9774;52.034;5.342;2024-03-23T12:52:40;14.30;55.20
19281;DHT22;9774;52.034;5.342;2024-03-23T12:55:07;14.40;54.80
19281;DHT22;9774;52.034;5.342;2024-03-23T12:57:33;14.40;54.60
19281;DHT22;9774;52.034;5.342;2024-03-23T13:00:01;14.40;54.50
19281;DHT22;9774;52.034;5.342;2024-03-23T13:02:29;14.40;53.80
19281;DHT22;9774;52.034;5.342;2024-03-23T13:04:58;14.40;53.40
19281;DHT22;9774;52.034;5.342;2024-03-23T13:07:24;14.40;53.30
19281;DHT22;9774;52.034;5.342;2024-03-23T13:09:52;14.40;53.70
19281;DHT22;9774;52.034;5.342;2024-03-23T13:12:18;14.40;53.70
19281;DHT22;9774;52.034;5.342;2024-03-23T13:14:46;14.40;53.20
19281;DHT22;9774;52.034;5.342;2024-03-23T13:17:12;14.40;53.50
19281;DHT22;9774;52.034;5.342;2024-03-23T13:19:40;14.40;53.00
19281;DHT22;9774;52.034;5.342;2024-03-23T13:22:08;14.40;53.10
19281;DHT22;9774;52.034;5.342;2024-03-23T13:24:37;14.40;52.50
19281;DHT22;9774;52.034;5.342;2024-03-23T13:27:04;14.30;52.50
19281;DHT22;9774;52.034;5.342;2024-03-23T13:29:33;14.30;53.00
19281;DHT22;9774;52.034;5.342;2024-03-23T13:32:00;14.20;53.60
19281;DHT22;9774;52.034;5.342;2024-03-23T13:34:27;14.20;54.20
19281;DHT22;9774;52.034;5.342;2024-03-23T13:36:55;14.30;55.30
19281;DHT22;9774;52.034;5.342;2024-03-23T13:39:25;14.50;56.40
19281;DHT22;9774;52.034;5.342;2024-03-23T13:41:53;14.80;56.20
19281;DHT22;9774;52.034;5.342;2024-03-23T13:44:21;15.20;56.10
19281;DHT22;9774;52.034;5.342;2024-03-23T13:46:47;15.60;56.70
19281;DHT22;9774;52.034;5.342;2024-03-23T13:49:25;16.00;56.00
19281;DHT22;9774;52.034;5.342;2024-03-23T13:51:52;16.40;53.90
19281;DHT22;9774;52.034;5.342;2024-03-23T13:54:19;16.70;53.40
19281;DHT22;9774;52.034;5.342;2024-03-23T13:56:48;16.80;51.20
19281;DHT22;9774;52.034;5.342;2024-03-23T13:59:16;16.80;50.40
19281;DHT22;9774;52.034;5.342;2024-03-23T14:01:42;16.70;50.90
19281;DHT22;9774;52.034;5.342;2024-03-23T14:04:11;16.50;50.30
19281;DHT22;9774;52.034;5.342;2024-03-23T14:06:37;16.30;50.80
19281;DHT22;9774;52.034;5.342;2024-03-23T14:09:05;16.20;52.20
19281;DHT22;9774;52.034;5.342;2024-03-23T14:11:31;16.30;53.10
19281;DHT22;9774;52.034;5.342;2024-03-23T14:13:59;16.50;54.10
19281;DHT22;9774;52.034;5.342;2024-03-23T14:16:25;16.80;54.90
19281;DHT22;9774;52.034;5.342;2024-03-23T14:18:53;17.20;55.90
19281;DHT22;9774;52.034;5.342;2024-03-23T14:21:19;17.70;55.90
19281;DHT22;9774;52.034;5.342;2024-03-23T14:23:46;18.20;54.80
19281;DHT22;9774;52.034;5.342;2024-03-23T14:26:13;18.60;53.90
19281;DHT22;9774;52.034;5.342;2024-03-23T14:28:39;19.00;52.00
19281;DHT22;9774;52.034;5.342;2024-03-23T14:31:08;19.20;51.40
19281;DHT22;9774;52.034;5.342;2024-03-23T14:33:36;19.40;51.40
19281;DHT22;9774;52.034;5.342;2024-03-23T14:36:03;19.70;51.40
19281;DHT22;9774;52.034;5.342;2024-03-23T14:38:30;19.80;50.60
19281;DHT22;9774;52.034;5.342;2024-03-23T14:40:58;19.80;49.60
19281;DHT22;9774;52.034;5.342;2024-03-23T14:43:25;19.70;47.20
19281;DHT22;9774;52.034;5.342;2024-03-23T14:46:10;19.60;48.40
19281;DHT22;9774;52.034;5.342;2024-03-23T14:48:38;19.50;48.20
19281;DHT22;9774;52.034;5.342;2024-03-23T14:51:06;19.50;49.20
19281;DHT22;9774;52.034;5.342;2024-03-23T14:53:34;19.70;50.20
19281;DHT22;9774;52.034;5.342;2024-03-23T14:56:03;19.90;50.40
19281;DHT22;9774;52.034;5.342;2024-03-23T14:58:31;20.10;50.10
19281;DHT22;9774;52.034;5.342;2024-03-23T15:01:00;20.30;48.60
19281;DHT22;9774;52.034;5.342;2024-03-23T15:03:29;20.30;47.60
19281;DHT22;9774;52.034;5.342;2024-03-23T15:05:57;20.20;46.60
19281;DHT22;9774;52.034;5.342;2024-03-23T15:08:25;20.10;46.30
19281;DHT22;9774;52.034;5.342;2024-03-23T15:10:53;19.80;45.20
19281;DHT22;9774;52.034;5.342;2024-03-23T15:13:19;19.50;45.60
19281;DHT22;9774;52.034;5.342;2024-03-23T15:15:48;19.10;45.00
19281;DHT22;9774;52.034;5.342;2024-03-23T15:18:15;18.70;45.20
19281;DHT22;9774;52.034;5.342;2024-03-23T15:20:52;18.40;45.70
19281;DHT22;9774;52.034;5.342;2024-03-23T15:23:19;18.00;45.40
19281;DHT22;9774;52.034;5.342;2024-03-23T15:25:54;17.70;45.90
19281;DHT22;9774;52.034;5.342;2024-03-23T15:28:20;17.30;45.90
19281;DHT22;9774;52.034;5.342;2024-03-23T15:30:47;17.00;46.30
19281;DHT22;9774;52.034;5.342;2024-03-23T15:33:13;16.70;46.30
19281;DHT22;9774;52.034;5.342;2024-03-23T15:35:40;16.40;46.60
19281;DHT22;9774;52.034;5.342;2024-03-23T15:38:08;16.20;47.30
19281;DHT22;9774;52.034;5.342;2024-03-23T15:40:35;15.90;47.60
19281;DHT22;9774;52.034;5.342;2024-03-23T15:43:01;15.70;48.10
19281;DHT22;9774;52.034;5.342;2024-03-23T15:45:28;15.60;48.40
19281;DHT22;9774;52.034;5.342;2024-03-23T15:47:54;15.40;48.70
19281;DHT22;9774;52.034;5.342;2024-03-23T15:50:22;15.30;49.10
19281;DHT22;9774;52.034;5.342;2024-03-23T15:52:48;15.20;49.50
19281;DHT22;9774;52.034;5.342;2024-03-23T15:55:17;15.00;49.50
19281;DHT22;9774;52.034;5.342;2024-03-23T15:57:43;14.90;49.70
19281;DHT22;9774;52.034;5.342;2024-03-23T16:00:11;14.80;50.00
19281;DHT22;9774;52.034;5.342;2024-03-23T16:02:38;14.70;50.30
19281;DHT22;9774;52.034;5.342;2024-03-23T16:05:06;14.60;50.50
19281;DHT22;9774;52.034;5.342;2024-03-23T16:07:36;14.50;50.80
19281;DHT22;9774;52.034;5.342;2024-03-23T16:10:05;14.40;51.00
19281;DHT22;9774;52.034;5.342;2024-03-23T16:12:36;14.30;51.10
19281;DHT22;9774;52.034;5.342;2024-03-23T16:15:04;14.20;51.00
19281;DHT22;9774;52.034;5.342;2024-03-23T16:17:31;14.20;51.20
19281;DHT22;9774;52.034;5.342;2024-03-23T16:20:01;14.10;51.40
19281;DHT22;9774;52.034;5.342;2024-03-23T16:22:28;14.00;51.50
19281;DHT22;9774;52.034;5.342;2024-03-23T16:24:55;13.90;51.70
19281;DHT22;9774;52.034;5.342;2024-03-23T16:27:21;13.80;51.90
19281;DHT22;9774;52.034;5.342;2024-03-23T16:29:50;13.70;52.50
19281;DHT22;9774;52.034;5.342;2024-03-23T16:32:16;13.70;52.20
19281;DHT22;9774;52.034;5.342;2024-03-23T16:34:44;13.60;52.30
19281;DHT22;9774;52.034;5.342;2024-03-23T16:37:10;13.50;52.50
19281;DHT22;9774;52.034;5.342;2024-03-23T16:39:37;13.50;52.70
19281;DHT22;9774;52.034;5.342;2024-03-23T16:42:03;13.40;53.50
19281;DHT22;9774;52.034;5.342;2024-03-23T16:44:30;13.40;53.20